Time;durP1;ratioP1;P1;durP2;ratioP2;P2;SDS_P1;SDS_P2;PMS_P1;PMS_P2;Temp;Humidity;BMP_temperature;BMP_pressure;BME280_temperature;BME280_humidity;BME280_pressure;Samples;Min_cycle;Max_cycle;Signal;HPM_P1;HPM_P2
2021/04/03 00:00:45;;;;;;;13.25;5.15;;;;;;;;;;5134377;27;20210;-62
2021/04/03 00:03:13;;;;;;;14.00;3.95;;;;;;;;;;5134866;27;20570;-62
2021/04/03 00:05:41;;;;;;;15.07;4.72;;;;;;;;;;5134545;27;20245;-61
2021/04/03 00:08:08;;;;;;;17.67;4.70;;;;;;;;;;5135402;27;20206;-63
2021/04/03 00:10:38;;;;;;;15.70;5.13;;;;;;;;;;5134413;27;20195;-61
2021/04/03 00:13:04;;;;;;;15.52;5.22;;;;;;;;;;5136244;28;20199;-62
2021/04/03 00:15:31;;;;;;;17.80;6.93;;;;;;;;;;5140905;28;20216;-63
2021/04/03 00:17:58;;;;;;;12.15;4.63;;;;;;;;;;5135192;28;20202;-61
2021/04/03 00:20:26;;;;;;;14.20;4.70;;;;;;;;;;5137178;28;20206;-61
2021/04/03 00:22:54;;;;;;;15.95;4.30;;;;;;;;;;5135592;27;20739;-61
2021/04/03 00:25:21;;;;;;;18.58;5.28;;;;;;;;;;5138808;27;20265;-62
2021/04/03 00:27:48;;;;;;;19.60;4.65;;;;;;;;;;5139118;27;20215;-62
2021/04/03 00:30:17;;;;;;;19.80;5.57;;;;;;;;;;5138394;27;20246;-62
2021/04/03 00:32:44;;;;;;;15.68;4.32;;;;;;;;;;5138365;27;20208;-62
2021/04/03 00:35:11;;;;;;;18.90;4.75;;;;;;;;;;5137950;27;20229;-62
2021/04/03 00:37:38;;;;;;;9.88;3.58;;;;;;;;;;5138054;27;20210;-62
2021/04/03 00:40:09;;;;;;;13.32;4.45;;;;;;;;;;5138298;27;20201;-62
2021/04/03 00:42:35;;;;;;;14.85;4.35;;;;;;;;;;5138244;27;20202;-62
2021/04/03 00:45:02;;;;;;;8.02;2.88;;;;;;;;;;5138303;27;20248;-63
2021/04/03 00:47:29;;;;;;;8.45;2.80;;;;;;;;;;5138039;27;20202;-63
2021/04/03 00:49:56;;;;;;;12.68;3.53;;;;;;;;;;5138160;27;20255;-62
2021/04/03 00:52:22;;;;;;;13.52;3.85;;;;;;;;;;5137638;27;20575;-62
2021/04/03 00:54:49;;;;;;;14.52;3.40;;;;;;;;;;5137706;27;20780;-62
2021/04/03 00:57:17;;;;;;;11.82;3.53;;;;;;;;;;5137723;27;20206;-62
2021/04/03 00:59:43;;;;;;;12.27;3.83;;;;;;;;;;5137801;27;20199;-62
2021/04/03 01:02:10;;;;;;;12.75;3.20;;;;;;;;;;5137748;27;20671;-64
2021/04/03 01:04:38;;;;;;;15.95;3.38;;;;;;;;;;5138091;27;20279;-63
2021/04/03 01:07:05;;;;;;;9.55;3.25;;;;;;;;;;5137488;27;20625;-63
2021/04/03 01:09:35;;;;;;;14.43;4.30;;;;;;;;;;5137742;27;20220;-63
2021/04/03 01:12:07;;;;;;;8.82;2.47;;;;;;;;;;5137446;27;20191;-62
2021/04/03 01:14:37;;;;;;;12.95;4.00;;;;;;;;;;5137574;27;20229;-63
2021/04/03 01:17:07;;;;;;;13.80;3.00;;;;;;;;;;5137298;27;20204;-63
2021/04/03 01:19:40;;;;;;;13.57;3.63;;;;;;;;;;5137702;27;20192;-62
2021/04/03 01:22:22;;;;;;;14.90;3.17;;;;;;;;;;5138310;27;20532;-63
2021/04/03 01:24:58;;;;;;;9.18;3.00;;;;;;;;;;5142841;27;20256;-62
2021/04/03 01:27:26;;;;;;;14.85;3.15;;;;;;;;;;5142163;27;20236;-62
2021/04/03 01:30:03;;;;;;;8.60;2.33;;;;;;;;;;5138021;27;20215;-62
2021/04/03 01:32:33;;;;;;;14.30;3.33;;;;;;;;;;5141652;27;20212;-64
2021/04/03 01:35:01;;;;;;;18.60;2.95;;;;;;;;;;5146448;27;20235;-63
2021/04/03 01:37:28;;;;;;;11.63;3.05;;;;;;;;;;5139218;27;20213;-62
2021/04/03 01:39:57;;;;;;;11.68;2.55;;;;;;;;;;5137588;27;20197;-62
2021/04/03 01:42:26;;;;;;;16.30;3.85;;;;;;;;;;5138219;27;20202;-62
2021/04/03 01:44:53;;;;;;;12.95;2.67;;;;;;;;;;5153962;27;20229;-62
2021/04/03 01:47:23;;;;;;;10.98;3.55;;;;;;;;;;5151858;27;20234;-65
2021/04/03 01:49:51;;;;;;;8.15;2.65;;;;;;;;;;5146769;27;20227;-63
2021/04/03 01:52:19;;;;;;;11.13;3.22;;;;;;;;;;5137220;27;20195;-63
2021/04/03 01:54:46;;;;;;;12.93;3.45;;;;;;;;;;5137005;27;20219;-61
2021/04/03 01:57:13;;;;;;;13.48;3.65;;;;;;;;;;5136717;27;20208;-63
2021/04/03 01:59:40;;;;;;;11.32;3.10;;;;;;;;;;5136964;27;20197;-62
2021/04/03 02:02:07;;;;;;;12.75;2.95;;;;;;;;;;5136692;27;20200;-62
2021/04/03 02:04:35;;;;;;;9.23;2.70;;;;;;;;;;5136872;27;20312;-62
2021/04/03 02:07:02;;;;;;;8.10;3.00;;;;;;;;;;5136514;27;20212;-63
2021/04/03 02:09:29;;;;;;;10.70;2.80;;;;;;;;;;5136815;27;20215;-62
2021/04/03 02:11:58;;;;;;;10.75;3.33;;;;;;;;;;5136782;27;20309;-63
2021/04/03 02:14:25;;;;;;;8.98;3.28;;;;;;;;;;5136701;27;20216;-63
2021/04/03 02:16:52;;;;;;;9.35;3.25;;;;;;;;;;5136456;27;20199;-63
2021/04/03 02:19:19;;;;;;;8.80;2.63;;;;;;;;;;5136588;27;20195;-62
2021/04/03 02:21:47;;;;;;;9.43;2.80;;;;;;;;;;5136441;27;20691;-62
2021/04/03 02:24:14;;;;;;;14.93;4.03;;;;;;;;;;5136574;27;20223;-62
2021/04/03 02:26:41;;;;;;;9.25;3.47;;;;;;;;;;5136398;27;20200;-62
2021/04/03 02:29:08;;;;;;;13.50;3.80;;;;;;;;;;5136104;27;20224;-63
2021/04/03 02:31:35;;;;;;;10.45;3.55;;;;;;;;;;5136507;27;20201;-63
2021/04/03 02:34:01;;;;;;;10.57;2.90;;;;;;;;;;5139100;27;20205;-62
2021/04/03 02:36:29;;;;;;;10.35;3.47;;;;;;;;;;5139431;27;20202;-62
2021/04/03 02:38:56;;;;;;;21.40;4.13;;;;;;;;;;5138344;27;20195;-61
2021/04/03 02:41:25;;;;;;;15.82;3.88;;;;;;;;;;5138714;27;20252;-62
2021/04/03 02:43:56;;;;;;;13.25;3.70;;;;;;;;;;5136538;27;20201;-62
2021/04/03 02:46:24;;;;;;;9.63;3.40;;;;;;;;;;5135696;27;20208;-63
2021/04/03 02:48:53;;;;;;;6.13;2.85;;;;;;;;;;5136028;27;20227;-62
2021/04/03 02:51:22;;;;;;;14.55;3.33;;;;;;;;;;5135958;27;20209;-64
2021/04/03 02:53:50;;;;;;;12.25;3.63;;;;;;;;;;5135642;27;20204;-63
2021/04/03 02:56:17;;;;;;;13.13;3.08;;;;;;;;;;5135353;27;20205;-63
2021/04/03 02:58:45;;;;;;;16.00;3.80;;;;;;;;;;5135737;27;20600;-62
2021/04/03 03:01:13;;;;;;;14.57;6.18;;;;;;;;;;5135225;27;20209;-63
2021/04/03 03:03:41;;;;;;;12.32;3.00;;;;;;;;;;5136003;27;20209;-62
2021/04/03 03:06:07;;;;;;;11.00;3.75;;;;;;;;;;5135399;27;20283;-63
2021/04/03 03:08:35;;;;;;;17.63;3.92;;;;;;;;;;5135560;27;20222;-63
2021/04/03 03:11:03;;;;;;;13.75;3.42;;;;;;;;;;5135623;27;20550;-63
2021/04/03 03:13:32;;;;;;;11.60;3.78;;;;;;;;;;5136043;27;20200;-61
2021/04/03 03:16:00;;;;;;;17.88;3.63;;;;;;;;;;5135965;27;20220;-63
2021/04/03 03:18:27;;;;;;;11.85;3.35;;;;;;;;;;5135998;27;20197;-63
2021/04/03 03:20:54;;;;;;;16.17;3.60;;;;;;;;;;5135970;27;20686;-62
2021/04/03 03:23:20;;;;;;;17.23;3.70;;;;;;;;;;5136380;27;20243;-62
2021/04/03 03:25:47;;;;;;;11.82;3.70;;;;;;;;;;5136708;27;20276;-62
2021/04/03 03:28:14;;;;;;;13.85;2.67;;;;;;;;;;5135858;27;20218;-62
2021/04/03 03:30:42;;;;;;;10.35;3.13;;;;;;;;;;5135905;27;20202;-62
2021/04/03 03:33:08;;;;;;;16.02;3.10;;;;;;;;;;5135272;27;20205;-62
2021/04/03 03:35:35;;;;;;;19.00;4.72;;;;;;;;;;5135513;27;20228;-62
2021/04/03 03:38:02;;;;;;;15.00;3.75;;;;;;;;;;5135042;27;20687;-61
2021/04/03 03:40:30;;;;;;;12.10;3.28;;;;;;;;;;5135056;27;20201;-63
2021/04/03 03:42:56;;;;;;;21.83;4.05;;;;;;;;;;5135107;27;20205;-63
2021/04/03 03:45:23;;;;;;;8.35;3.00;;;;;;;;;;5134829;27;20225;-62
2021/04/03 03:47:51;;;;;;;14.13;3.95;;;;;;;;;;5135144;27;20642;-62
2021/04/03 03:50:18;;;;;;;13.60;3.83;;;;;;;;;;5135466;27;20200;-63
2021/04/03 03:52:44;;;;;;;19.15;4.13;;;;;;;;;;5143648;27;20208;-63
2021/04/03 03:55:12;;;;;;;14.77;3.90;;;;;;;;;;5135610;27;20252;-62
2021/04/03 03:57:38;;;;;;;13.48;4.50;;;;;;;;;;5134832;27;20203;-63
2021/04/03 04:00:06;;;;;;;16.73;4.50;;;;;;;;;;5134900;27;20222;-63
2021/04/03 04:02:33;;;;;;;18.48;4.13;;;;;;;;;;5135188;27;20196;-63
2021/04/03 04:07:54;;;;;;;19.60;3.80;;;;;;;;;;5127122;27;838247;-61
2021/04/03 04:10:22;;;;;;;20.52;4.28;;;;;;;;;;5131976;28;20724;-62
2021/04/03 04:12:48;;;;;;;15.05;4.53;;;;;;;;;;5132711;28;20205;-62
2021/04/03 04:15:16;;;;;;;15.38;4.93;;;;;;;;;;5119915;28;20225;-63
2021/04/03 04:17:42;;;;;;;23.13;5.47;;;;;;;;;;5111663;28;20193;-62
2021/04/03 04:20:10;;;;;;;18.52;5.00;;;;;;;;;;5111615;28;20200;-61
2021/04/03 04:22:37;;;;;;;13.05;3.90;;;;;;;;;;5111461;28;20199;-62
2021/04/03 04:25:05;;;;;;;34.00;6.45;;;;;;;;;;5111123;28;20236;-62
2021/04/03 04:27:32;;;;;;;20.63;5.85;;;;;;;;;;5111090;28;20225;-62
2021/04/03 04:30:09;;;;;;;26.60;7.38;;;;;;;;;;5111542;28;20257;-62
2021/04/03 04:32:36;;;;;;;25.42;6.82;;;;;;;;;;5110648;28;20185;-62
2021/04/03 04:35:02;;;;;;;23.50;6.30;;;;;;;;;;5110771;28;20219;-62
2021/04/03 04:37:29;;;;;;;16.85;6.00;;;;;;;;;;5110534;28;20665;-62
2021/04/03 04:39:56;;;;;;;19.33;5.80;;;;;;;;;;5110808;28;20202;-62
2021/04/03 04:42:23;;;;;;;21.83;6.82;;;;;;;;;;5110689;28;20230;-62
2021/04/03 04:44:50;;;;;;;27.75;7.78;;;;;;;;;;5110352;28;20574;-63
2021/04/03 04:47:17;;;;;;;30.23;9.10;;;;;;;;;;5110456;28;20241;-62
2021/04/03 04:49:44;;;;;;;20.77;7.38;;;;;;;;;;5110565;28;20620;-62
2021/04/03 04:52:11;;;;;;;21.00;7.93;;;;;;;;;;5110522;28;20198;-61
2021/04/03 04:54:37;;;;;;;33.95;10.15;;;;;;;;;;5109931;28;20231;-63
2021/04/03 04:57:04;;;;;;;30.85;9.13;;;;;;;;;;5111874;28;20226;-63
2021/04/03 04:59:32;;;;;;;30.80;8.65;;;;;;;;;;5115083;28;20211;-63
2021/04/03 05:01:59;;;;;;;23.33;9.27;;;;;;;;;;5110394;28;20608;-63
2021/04/03 05:04:26;;;;;;;25.35;8.85;;;;;;;;;;5110255;28;20597;-62
2021/04/03 05:06:52;;;;;;;22.83;8.80;;;;;;;;;;5110008;28;20219;-62
2021/04/03 05:09:19;;;;;;;30.95;10.05;;;;;;;;;;5110294;28;20248;-62
2021/04/03 05:11:46;;;;;;;30.95;11.90;;;;;;;;;;5111936;28;20675;-62
2021/04/03 05:14:13;;;;;;;31.35;10.45;;;;;;;;;;5110874;28;20230;-64
2021/04/03 05:16:40;;;;;;;28.48;10.30;;;;;;;;;;5111263;28;20195;-62
2021/04/03 05:19:07;;;;;;;37.13;10.65;;;;;;;;;;5099373;28;20231;-62
2021/04/03 05:21:34;;;;;;;27.98;10.95;;;;;;;;;;5099928;28;20600;-62
2021/04/03 05:24:01;;;;;;;29.20;9.65;;;;;;;;;;5099984;28;20204;-62
2021/04/03 05:26:27;;;;;;;30.08;10.50;;;;;;;;;;5098306;28;20220;-62
2021/04/03 05:28:54;;;;;;;27.63;11.00;;;;;;;;;;5097422;28;20203;-63
2021/04/03 05:31:21;;;;;;;35.70;11.45;;;;;;;;;;5097605;28;20203;-61
2021/04/03 05:33:49;;;;;;;31.10;10.30;;;;;;;;;;5097099;28;20349;-62
2021/04/03 05:36:16;;;;;;;30.15;10.02;;;;;;;;;;5097186;28;20207;-62
2021/04/03 05:38:43;;;;;;;34.40;11.45;;;;;;;;;;5097925;28;20265;-62
2021/04/03 05:41:09;;;;;;;30.48;10.48;;;;;;;;;;5098187;28;20720;-61
2021/04/03 05:43:36;;;;;;;24.45;9.35;;;;;;;;;;5097811;28;20207;-62
2021/04/03 05:46:04;;;;;;;29.35;10.40;;;;;;;;;;5098040;28;20231;-63
2021/04/03 05:48:31;;;;;;;26.13;10.27;;;;;;;;;;5097383;28;20208;-61
2021/04/03 05:50:59;;;;;;;33.38;10.93;;;;;;;;;;5097324;28;20216;-63
2021/04/03 05:53:27;;;;;;;30.77;11.50;;;;;;;;;;5098751;28;20265;-62
2021/04/03 05:55:54;;;;;;;28.35;10.13;;;;;;;;;;5099195;28;20222;-62
2021/04/03 05:58:21;;;;;;;34.63;10.20;;;;;;;;;;5098049;28;20664;-62
2021/04/03 06:00:47;;;;;;;25.60;11.05;;;;;;;;;;5097265;28;20211;-63
2021/04/03 06:03:15;;;;;;;26.30;10.05;;;;;;;;;;5097707;28;20693;-63
2021/04/03 06:05:43;;;;;;;29.35;9.75;;;;;;;;;;5104507;28;20359;-63
2021/04/03 06:08:10;;;;;;;26.17;10.55;;;;;;;;;;5107693;28;20211;-62
2021/04/03 06:10:37;;;;;;;29.40;10.38;;;;;;;;;;5108799;28;20204;-63
2021/04/03 06:13:17;;;;;;;40.15;10.32;;;;;;;;;;5099231;28;20672;-62
2021/04/03 06:15:43;;;;;;;26.23;10.40;;;;;;;;;;5097172;28;20222;-62
2021/04/03 06:18:11;;;;;;;28.73;9.63;;;;;;;;;;5097458;28;20208;-63
2021/04/03 06:20:38;;;;;;;29.38;10.70;;;;;;;;;;5097529;28;20204;-62
2021/04/03 06:23:05;;;;;;;32.90;9.98;;;;;;;;;;5098801;28;20207;-62
2021/04/03 06:25:52;;;;;;;34.20;12.32;;;;;;;;;;5099132;28;20220;-62
2021/04/03 06:28:25;;;;;;;22.77;9.80;;;;;;;;;;5098155;28;20222;-63
2021/04/03 06:30:52;;;;;;;20.40;9.93;;;;;;;;;;5096823;28;20184;-62
2021/04/03 06:33:20;;;;;;;27.13;10.88;;;;;;;;;;5098095;28;20243;-62
2021/04/03 06:35:47;;;;;;;24.63;10.05;;;;;;;;;;5098349;28;20224;-62
2021/04/03 06:38:18;;;;;;;20.92;8.73;;;;;;;;;;5098355;28;20200;-62
2021/04/03 06:40:46;;;;;;;18.85;8.45;;;;;;;;;;5098096;28;20200;-62
2021/04/03 06:43:15;;;;;;;19.02;9.00;;;;;;;;;;5096075;28;20208;-63
2021/04/03 06:45:44;;;;;;;19.33;8.90;;;;;;;;;;5096274;28;20311;-63
2021/04/03 06:48:11;;;;;;;23.73;9.15;;;;;;;;;;5094537;28;20206;-62
2021/04/03 06:50:39;;;;;;;21.45;9.57;;;;;;;;;;5095676;28;20591;-62
2021/04/03 06:53:07;;;;;;;19.52;8.38;;;;;;;;;;5096019;28;20196;-63
2021/04/03 06:55:34;;;;;;;20.70;7.50;;;;;;;;;;5094787;28;20601;-64
2021/04/03 06:58:03;;;;;;;15.70;8.10;;;;;;;;;;5095049;28;20224;-62
2021/04/03 07:00:31;;;;;;;16.05;6.90;;;;;;;;;;5094221;28;20212;-64
2021/04/03 07:02:59;;;;;;;17.73;8.23;;;;;;;;;;5094535;28;20204;-63
2021/04/03 07:05:26;;;;;;;19.55;8.40;;;;;;;;;;5094263;28;20217;-63
2021/04/03 07:07:55;;;;;;;20.77;9.15;;;;;;;;;;5094013;28;20229;-63
2021/04/03 07:10:22;;;;;;;18.80;9.02;;;;;;;;;;5094341;28;20570;-63
2021/04/03 07:12:50;;;;;;;18.63;9.52;;;;;;;;;;5094255;28;20204;-62
2021/04/03 07:15:18;;;;;;;23.05;8.88;;;;;;;;;;5094510;28;20708;-63
2021/04/03 07:17:45;;;;;;;15.50;7.40;;;;;;;;;;5102768;28;20196;-64
2021/04/03 07:20:13;;;;;;;21.13;8.10;;;;;;;;;;5094904;28;20200;-63
2021/04/03 07:22:42;;;;;;;15.23;7.05;;;;;;;;;;5094628;28;20257;-63
2021/04/03 07:25:10;;;;;;;14.90;6.43;;;;;;;;;;5095616;28;20277;-62
2021/04/03 07:27:38;;;;;;;18.65;7.03;;;;;;;;;;5096726;28;20223;-62
2021/04/03 07:30:05;;;;;;;19.88;7.35;;;;;;;;;;5094722;28;20200;-62
2021/04/03 07:32:34;;;;;;;23.55;9.27;;;;;;;;;;5094451;28;20205;-63
2021/04/03 07:35:13;;;;;;;23.30;9.57;;;;;;;;;;5094185;28;20308;-62
2021/04/03 07:37:41;;;;;;;19.25;8.70;;;;;;;;;;5093738;28;20313;-63
2021/04/03 07:40:08;;;;;;;17.42;8.50;;;;;;;;;;5093631;28;20753;-63
2021/04/03 07:42:36;;;;;;;17.92;8.52;;;;;;;;;;5093779;28;20200;-62
2021/04/03 07:45:03;;;;;;;21.77;10.57;;;;;;;;;;5096176;28;20221;-62
2021/04/03 07:47:30;;;;;;;21.75;7.97;;;;;;;;;;5096048;28;20631;-62
2021/04/03 07:49:59;;;;;;;19.98;7.97;;;;;;;;;;5094638;28;20201;-62
2021/04/03 07:52:44;;;;;;;16.85;7.50;;;;;;;;;;5094110;28;20256;-63
2021/04/03 07:55:29;;;;;;;21.40;7.22;;;;;;;;;;5094123;28;20269;-61
2021/04/03 07:58:23;;;;;;;20.33;7.68;;;;;;;;;;5092998;28;20203;-62
2021/04/03 08:00:50;;;;;;;18.52;7.82;;;;;;;;;;5092889;28;20214;-62
2021/04/03 08:03:20;;;;;;;12.82;7.20;;;;;;;;;;5093306;28;20204;-63
2021/04/03 08:05:49;;;;;;;17.15;7.70;;;;;;;;;;5093084;28;20718;-63
2021/04/03 08:08:19;;;;;;;17.85;8.80;;;;;;;;;;5093272;28;20208;-63
2021/04/03 08:10:46;;;;;;;20.23;6.65;;;;;;;;;;5093532;28;20200;-62
2021/04/03 08:13:13;;;;;;;11.35;6.45;;;;;;;;;;5097080;28;20210;-63
2021/04/03 08:15:42;;;;;;;15.82;7.57;;;;;;;;;;5099016;28;20219;-63
2021/04/03 08:18:09;;;;;;;13.35;8.13;;;;;;;;;;5097324;28;20293;-63
2021/04/03 08:20:36;;;;;;;15.65;7.70;;;;;;;;;;5095910;28;20203;-63
2021/04/03 08:23:04;;;;;;;14.63;7.40;;;;;;;;;;5096112;28;20245;-63
2021/04/03 08:25:31;;;;;;;17.90;6.65;;;;;;;;;;5096107;28;20227;-62
2021/04/03 08:27:59;;;;;;;17.42;6.68;;;;;;;;;;5096467;28;20616;-62
2021/04/03 08:30:30;;;;;;;23.27;7.18;;;;;;;;;;5098238;28;20636;-62
2021/04/03 08:33:07;;;;;;;18.10;6.88;;;;;;;;;;5094014;28;20210;-63
2021/04/03 08:35:35;;;;;;;14.07;7.10;;;;;;;;;;5094028;28;20261;-63
2021/04/03 08:38:16;;;;;;;19.35;7.00;;;;;;;;;;5093660;28;20206;-63
2021/04/03 08:40:43;;;;;;;19.55;7.10;;;;;;;;;;5093510;28;20274;-63
2021/04/03 08:43:16;;;;;;;19.67;6.88;;;;;;;;;;5094122;28;20204;-61
2021/04/03 08:45:43;;;;;;;18.13;7.15;;;;;;;;;;5094117;28;20227;-63
2021/04/03 08:48:10;;;;;;;13.27;6.40;;;;;;;;;;5096086;28;20219;-63
2021/04/03 08:50:37;;;;;;;19.08;7.22;;;;;;;;;;5094792;28;20215;-62
2021/04/03 08:53:05;;;;;;;12.95;5.40;;;;;;;;;;5096446;28;20227;-62
2021/04/03 08:55:33;;;;;;;12.80;5.53;;;;;;;;;;5099508;28;20255;-61
2021/04/03 08:58:01;;;;;;;10.43;5.55;;;;;;;;;;5099985;28;20261;-61
2021/04/03 09:00:28;;;;;;;19.92;7.43;;;;;;;;;;5098205;28;20212;-60
2021/04/03 09:02:55;;;;;;;19.08;6.75;;;;;;;;;;5098230;28;20211;-61
2021/04/03 09:05:22;;;;;;;15.82;6.68;;;;;;;;;;5097580;28;20223;-62
2021/04/03 09:07:49;;;;;;;14.95;6.15;;;;;;;;;;5097674;28;20301;-63
2021/04/03 09:10:17;;;;;;;14.60;5.97;;;;;;;;;;5100635;28;20204;-62
2021/04/03 09:12:46;;;;;;;20.98;7.68;;;;;;;;;;5111166;28;20204;-62
2021/04/03 09:15:14;;;;;;;12.25;7.40;;;;;;;;;;5107685;28;20268;-62
2021/04/03 09:17:51;;;;;;;18.67;7.30;;;;;;;;;;5099191;28;20252;-61
2021/04/03 09:20:20;;;;;;;20.05;7.50;;;;;;;;;;5096941;28;20207;-62
2021/04/03 09:22:48;;;;;;;16.80;8.25;;;;;;;;;;5097017;28;20204;-61
2021/04/03 09:25:16;;;;;;;12.90;7.07;;;;;;;;;;5096631;28;20224;-61
2021/04/03 09:27:43;;;;;;;14.23;7.30;;;;;;;;;;5099569;28;20295;-60
2021/04/03 09:30:13;;;;;;;13.63;6.50;;;;;;;;;;5101571;28;20200;-62
2021/04/03 09:32:40;;;;;;;15.63;6.57;;;;;;;;;;5099262;28;20211;-62
2021/04/03 09:35:08;;;;;;;14.52;7.28;;;;;;;;;;5098982;28;20224;-61
2021/04/03 09:37:36;;;;;;;12.90;6.13;;;;;;;;;;5098097;28;20200;-63
2021/04/03 09:40:05;;;;;;;12.60;6.00;;;;;;;;;;5097141;28;20200;-64
2021/04/03 09:42:32;;;;;;;13.80;5.80;;;;;;;;;;5098167;28;20667;-65
2021/04/03 09:45:00;;;;;;;12.82;5.70;;;;;;;;;;5099325;28;20240;-63
2021/04/03 09:47:29;;;;;;;15.15;6.30;;;;;;;;;;5095749;28;20255;-63
2021/04/03 09:49:56;;;;;;;12.90;6.75;;;;;;;;;;5095597;28;20200;-63
2021/04/03 09:52:24;;;;;;;11.50;5.95;;;;;;;;;;5095798;28;20200;-62
2021/04/03 09:54:51;;;;;;;8.90;5.00;;;;;;;;;;5095391;28;20227;-61
2021/04/03 09:57:20;;;;;;;6.88;4.28;;;;;;;;;;5095553;28;20662;-62
2021/04/03 09:59:47;;;;;;;12.48;4.90;;;;;;;;;;5095438;28;20676;-64
2021/04/03 10:02:14;;;;;;;11.32;5.85;;;;;;;;;;5099845;28;20216;-61
2021/04/03 10:04:43;;;;;;;9.95;5.60;;;;;;;;;;5096347;28;20250;-63
2021/04/03 10:07:10;;;;;;;15.07;6.63;;;;;;;;;;5095497;28;20256;-63
2021/04/03 10:09:37;;;;;;;12.88;5.47;;;;;;;;;;5095027;28;20204;-62
2021/04/03 10:12:04;;;;;;;11.48;6.38;;;;;;;;;;5095082;28;20304;-62
2021/04/03 10:14:32;;;;;;;11.85;6.15;;;;;;;;;;5096125;28;20216;-61
2021/04/03 10:16:59;;;;;;;13.10;7.05;;;;;;;;;;5095832;28;20231;-62
2021/04/03 10:19:26;;;;;;;10.00;5.97;;;;;;;;;;5095487;28;20200;-62
2021/04/03 10:21:54;;;;;;;12.68;5.57;;;;;;;;;;5095207;28;20445;-62
2021/04/03 10:24:21;;;;;;;15.27;6.47;;;;;;;;;;5095343;28;20220;-63
2021/04/03 10:26:48;;;;;;;14.70;7.97;;;;;;;;;;5095116;28;20273;-62
2021/04/03 10:29:15;;;;;;;12.33;6.10;;;;;;;;;;5095806;28;20446;-63
2021/04/03 10:31:42;;;;;;;13.87;5.97;;;;;;;;;;5094747;28;20445;-62
2021/04/03 10:34:10;;;;;;;11.10;5.10;;;;;;;;;;5095285;28;20550;-61
2021/04/03 10:36:37;;;;;;;11.27;5.50;;;;;;;;;;5077145;28;20962;-61
2021/04/03 10:39:07;;;;;;;9.23;5.90;;;;;;;;;;5094605;28;20546;-62
2021/04/03 10:41:34;;;;;;;11.50;5.87;;;;;;;;;;5094815;28;20423;-61
2021/04/03 10:44:02;;;;;;;9.33;5.40;;;;;;;;;;5094925;28;20533;-60
2021/04/03 10:46:29;;;;;;;14.17;5.77;;;;;;;;;;5095026;28;20482;-61
2021/04/03 10:48:56;;;;;;;11.10;5.93;;;;;;;;;;5094986;28;20453;-62
2021/04/03 10:51:23;;;;;;;14.80;6.07;;;;;;;;;;5095584;28;20820;-61
2021/04/03 10:53:53;;;;;;;7.20;4.13;;;;;;;;;;5097758;28;20442;-64
2021/04/03 10:56:21;;;;;;;7.13;3.23;;;;;;;;;;5098407;28;20480;-62
2021/04/03 10:58:48;;;;;;;6.50;3.67;;;;;;;;;;5095187;28;20511;-61
2021/04/03 11:01:15;;;;;;;8.73;4.23;;;;;;;;;;5095218;28;20472;-62
2021/04/03 11:03:43;;;;;;;5.57;3.07;;;;;;;;;;5096327;28;20444;-60
2021/04/03 11:06:11;;;;;;;6.17;2.00;;;;;;;;;;5095627;28;20493;-61
2021/04/03 11:08:38;;;;;;;3.33;1.63;;;;;;;;;;5095848;28;20423;-61
2021/04/03 11:11:06;;;;;;;3.20;1.73;;;;;;;;;;5095002;28;20504;-61
2021/04/03 11:13:34;;;;;;;2.80;2.00;;;;;;;;;;5095720;28;20438;-61
2021/04/03 11:16:01;;;;;;;2.00;1.20;;;;;;;;;;5094329;28;20465;-62
2021/04/03 11:18:28;;;;;;;2.17;1.47;;;;;;;;;;5094693;28;20469;-62
2021/04/03 11:20:55;;;;;;;2.00;1.33;;;;;;;;;;5099244;28;20453;-62
2021/04/03 11:23:22;;;;;;;4.10;1.63;;;;;;;;;;5096169;28;20948;-62
2021/04/03 11:25:49;;;;;;;3.90;1.40;;;;;;;;;;5093803;28;20465;-60
2021/04/03 11:28:16;;;;;;;4.73;2.53;;;;;;;;;;5093259;28;20478;-62
2021/04/03 11:30:44;;;;;;;1.83;1.20;;;;;;;;;;5093270;28;20489;-61
2021/04/03 11:33:11;;;;;;;2.77;1.90;;;;;;;;;;5094270;28;20774;-61
2021/04/03 11:35:39;;;;;;;2.80;1.63;;;;;;;;;;5093390;28;20520;-61
2021/04/03 11:38:06;;;;;;;2.80;1.40;;;;;;;;;;5093416;28;20447;-62
2021/04/03 11:40:33;;;;;;;2.87;1.57;;;;;;;;;;5093703;28;20528;-62
2021/04/03 11:43:00;;;;;;;2.43;1.30;;;;;;;;;;5093366;28;20499;-61
2021/04/03 11:45:27;;;;;;;3.93;1.20;;;;;;;;;;5094265;28;20469;-61
2021/04/03 11:47:54;;;;;;;4.10;1.10;;;;;;;;;;5097527;28;20543;-61
2021/04/03 11:50:21;;;;;;;2.80;1.20;;;;;;;;;;5094058;28;20484;-62
2021/04/03 11:52:48;;;;;;;1.57;1.13;;;;;;;;;;5093090;28;20442;-62
2021/04/03 11:55:16;;;;;;;2.50;1.47;;;;;;;;;;5093907;28;20973;-61
2021/04/03 11:57:43;;;;;;;2.43;1.47;;;;;;;;;;5093211;28;20438;-62
2021/04/03 12:00:11;;;;;;;2.13;1.20;;;;;;;;;;5093114;28;20446;-61
2021/04/03 12:02:38;;;;;;;1.60;1.20;;;;;;;;;;5093531;28;20450;-61
2021/04/03 12:05:07;;;;;;;1.50;1.10;;;;;;;;;;5093291;28;20465;-62
2021/04/03 12:07:35;;;;;;;2.00;1.00;;;;;;;;;;5092836;28;20489;-62
2021/04/03 12:10:02;;;;;;;2.60;1.47;;;;;;;;;;5093332;28;20503;-62
2021/04/03 12:12:29;;;;;;;1.83;1.30;;;;;;;;;;5093388;28;20944;-61
2021/04/03 12:14:55;;;;;;;2.90;1.93;;;;;;;;;;5093127;28;20507;-63
2021/04/03 12:17:22;;;;;;;3.57;1.30;;;;;;;;;;5093285;28;20442;-62
2021/04/03 12:19:49;;;;;;;2.20;1.70;;;;;;;;;;5093731;28;20442;-62
2021/04/03 12:22:18;;;;;;;3.73;1.50;;;;;;;;;;5093604;28;20449;-62
2021/04/03 12:24:44;;;;;;;2.10;1.60;;;;;;;;;;5092993;28;20531;-62
2021/04/03 12:27:11;;;;;;;2.37;1.67;;;;;;;;;;5098450;28;20469;-61
2021/04/03 12:29:38;;;;;;;2.67;1.80;;;;;;;;;;5102972;28;20454;-61
2021/04/03 12:32:05;;;;;;;5.47;1.80;;;;;;;;;;5104833;28;20438;-62
2021/04/03 12:34:32;;;;;;;2.23;1.70;;;;;;;;;;5104709;28;20833;-61
2021/04/03 12:36:58;;;;;;;3.30;1.37;;;;;;;;;;5099679;28;20938;-61
2021/04/03 12:39:26;;;;;;;2.20;1.40;;;;;;;;;;5098282;28;20942;-60
2021/04/03 12:41:53;;;;;;;2.93;1.40;;;;;;;;;;5097834;28;20442;-61
2021/04/03 12:44:19;;;;;;;1.73;1.23;;;;;;;;;;5097639;28;20464;-62
2021/04/03 12:46:46;;;;;;;1.93;1.20;;;;;;;;;;5097653;28;20470;-61
2021/04/03 12:49:13;;;;;;;2.63;1.53;;;;;;;;;;5097357;28;20806;-60
2021/04/03 12:51:40;;;;;;;3.33;1.40;;;;;;;;;;5098563;28;20465;-61
2021/04/03 12:54:07;;;;;;;3.70;1.37;;;;;;;;;;5098873;28;20852;-61
2021/04/03 12:56:35;;;;;;;2.30;1.50;;;;;;;;;;5099208;28;20948;-62
2021/04/03 12:59:02;;;;;;;2.67;1.67;;;;;;;;;;5097588;28;20438;-60
2021/04/03 13:01:28;;;;;;;3.27;1.60;;;;;;;;;;5097394;28;20525;-62
2021/04/03 13:03:55;;;;;;;3.83;1.50;;;;;;;;;;5097413;28;20450;-61
2021/04/03 13:06:22;;;;;;;3.13;1.20;;;;;;;;;;5097116;28;20922;-61
2021/04/03 13:08:49;;;;;;;1.43;1.33;;;;;;;;;;5101902;28;20623;-61
2021/04/03 13:11:15;;;;;;;1.97;1.47;;;;;;;;;;5098119;28;20461;-61
2021/04/03 13:13:43;;;;;;;1.60;1.37;;;;;;;;;;5097952;28;20445;-61
2021/04/03 13:16:10;;;;;;;2.00;1.10;;;;;;;;;;5097067;28;20965;-61
2021/04/03 13:18:36;;;;;;;2.00;1.30;;;;;;;;;;5097321;28;20491;-62
2021/04/03 13:21:03;;;;;;;1.67;1.43;;;;;;;;;;5097213;28;20442;-61
2021/04/03 13:23:30;;;;;;;2.60;1.50;;;;;;;;;;5096673;28;20495;-61
2021/04/03 13:25:57;;;;;;;2.10;1.63;;;;;;;;;;5096851;28;20462;-61
2021/04/03 13:28:24;;;;;;;2.50;1.47;;;;;;;;;;5097057;28;20477;-62
2021/04/03 13:30:51;;;;;;;3.33;1.50;;;;;;;;;;5096538;28;20897;-62
2021/04/03 13:33:18;;;;;;;1.30;0.90;;;;;;;;;;5096877;28;20438;-61
2021/04/03 13:35:45;;;;;;;1.70;1.33;;;;;;;;;;5096913;28;20819;-62
2021/04/03 13:38:11;;;;;;;2.57;1.77;;;;;;;;;;5096194;28;20549;-62
2021/04/03 13:40:38;;;;;;;2.00;1.33;;;;;;;;;;5096374;28;20445;-61
2021/04/03 13:43:05;;;;;;;1.40;1.20;;;;;;;;;;5095995;28;20476;-61
2021/04/03 13:45:32;;;;;;;3.40;1.50;;;;;;;;;;5095693;28;20969;-61
2021/04/03 13:48:00;;;;;;;3.40;1.57;;;;;;;;;;5095916;28;20477;-60
2021/04/03 13:50:26;;;;;;;1.60;1.30;;;;;;;;;;5096799;28;20446;-61
2021/04/03 13:52:53;;;;;;;2.40;1.23;;;;;;;;;;5096128;28;20442;-62
2021/04/03 13:55:20;;;;;;;4.30;1.20;;;;;;;;;;5095817;28;20489;-62
2021/04/03 13:57:47;;;;;;;2.60;1.50;;;;;;;;;;5095626;28;20449;-62
2021/04/03 14:00:14;;;;;;;3.63;2.10;;;;;;;;;;5095050;28;20817;-62
2021/04/03 14:02:41;;;;;;;3.40;1.50;;;;;;;;;;5095559;28;20446;-61
2021/04/03 14:05:09;;;;;;;1.53;1.23;;;;;;;;;;5095192;28;20981;-60
2021/04/03 14:07:35;;;;;;;2.80;1.60;;;;;;;;;;5095638;28;20482;-61
2021/04/03 14:10:02;;;;;;;2.67;1.87;;;;;;;;;;5095393;28;20491;-61
2021/04/03 14:12:29;;;;;;;3.33;1.53;;;;;;;;;;5095366;28;20446;-60
2021/04/03 14:14:56;;;;;;;1.90;1.40;;;;;;;;;;5095028;28;20577;-62
2021/04/03 14:17:23;;;;;;;1.70;1.27;;;;;;;;;;5095113;28;20442;-61
2021/04/03 14:19:50;;;;;;;2.10;1.43;;;;;;;;;;5096096;28;20434;-61
2021/04/03 14:22:17;;;;;;;1.67;1.43;;;;;;;;;;5094899;28;20961;-60
2021/04/03 14:24:45;;;;;;;3.13;1.70;;;;;;;;;;5095259;28;20458;-61
2021/04/03 14:27:12;;;;;;;2.20;1.57;;;;;;;;;;5095221;28;20500;-61
2021/04/03 14:29:39;;;;;;;2.47;1.63;;;;;;;;;;5094776;28;20438;-61
2021/04/03 14:32:06;;;;;;;2.00;1.30;;;;;;;;;;5095258;28;20458;-62
2021/04/03 14:34:33;;;;;;;3.20;1.83;;;;;;;;;;5094290;28;20500;-60
2021/04/03 14:36:59;;;;;;;2.10;1.50;;;;;;;;;;5094873;28;20819;-60
2021/04/03 14:39:27;;;;;;;1.83;1.40;;;;;;;;;;5094763;28;20869;-62